Terminal Aerodrome Forecast
Issued by NWS

Home | Current Version | Previous Version | Text Only | Print | Product List | Glossary On
Versions: 1 2 3 4 5 6 7 8 9 10 11 12 13 14 15 16 17 18 19 20 21 22 23 24 25 26 27 28 29 30 31 32 33 34 35 36 37 38 39 40 41 42 43 44 45 46 47 48 49 50
595
FTUS45 KBOU 212321
TAFBJC
TAF
KBJC 212321Z 2200/2224 23012G20KT P6SM SCT140 BKN220
     FM220200 25015G25KT P6SM SCT140 BKN220
     FM220800 25025G35KT P6SM FEW140 SCT220
     FM221500 28020G30KT P6SM FEW140 SCT220
     FM221900 25015G25KT P6SM FEW140 SCT220=

USA.gov is the U.S. government's official web portal to all federal, state and local government web resources and services.